createdAt,value
2022-12-16T00:01:35.170Z,8.68
2022-12-16T00:04:02.360Z,9.38
2022-12-16T00:06:32.958Z,9.85
2022-12-16T00:09:00.996Z,9.25
2022-12-16T00:11:28.745Z,9.30
2022-12-16T00:13:56.032Z,8.40
2022-12-16T00:16:23.260Z,9.57
2022-12-16T00:18:51.849Z,9.43
2022-12-16T00:21:20.703Z,9.15
2022-12-16T00:23:47.853Z,9.52
2022-12-16T00:26:14.789Z,9.10
2022-12-16T00:28:43.793Z,9.60
2022-12-16T00:31:10.822Z,9.82
2022-12-16T00:33:37.640Z,9.63
2022-12-16T00:36:04.717Z,9.52
2022-12-16T00:38:31.556Z,9.60
2022-12-16T00:40:58.599Z,9.48
2022-12-16T00:43:25.432Z,9.05
2022-12-16T00:45:52.342Z,9.85
2022-12-16T00:48:22.992Z,9.20
2022-12-16T00:50:54.906Z,9.68
2022-12-16T00:53:23.531Z,9.32
2022-12-16T00:55:50.787Z,9.20
2022-12-16T00:58:18.839Z,9.63
2022-12-16T01:00:45.614Z,9.60
2022-12-16T01:03:16.693Z,9.75
2022-12-16T01:05:46.306Z,9.90
2022-12-16T01:08:13.717Z,9.65
2022-12-16T01:10:40.457Z,9.38
2022-12-16T01:13:07.773Z,10.23
2022-12-16T01:15:35.067Z,9.35
2022-12-16T01:18:01.807Z,9.70
2022-12-16T01:20:28.535Z,9.88
2022-12-16T01:22:55.838Z,9.52
2022-12-16T01:25:22.577Z,9.87
2022-12-16T01:27:50.292Z,10.05
2022-12-16T01:30:17.318Z,10.18
2022-12-16T01:32:44.172Z,10.07
2022-12-16T01:35:43.824Z,9.50
2022-12-16T01:38:00.595Z,9.30
2022-12-16T01:40:27.847Z,10.13
2022-12-16T01:42:55.144Z,9.67
2022-12-16T01:45:25.010Z,9.90
2022-12-16T01:47:54.921Z,9.90
2022-12-16T01:50:22.462Z,9.77
2022-12-16T01:52:53.714Z,10.05
2022-12-16T01:55:26.717Z,9.52
2022-12-16T01:58:02.337Z,9.35
2022-12-16T02:00:29.207Z,9.68
2022-12-16T02:02:58.842Z,10.02
2022-12-16T02:05:26.586Z,9.40
2022-12-16T02:08:18.185Z,10.07
2022-12-16T02:10:51.959Z,9.93
2022-12-16T02:16:26.056Z,9.60
2022-12-16T02:19:02.220Z,8.93
2022-12-16T02:21:28.997Z,9.82
2022-12-16T02:23:58.737Z,9.65
2022-12-16T02:27:00.734Z,10.02
2022-12-16T02:29:46.438Z,9.60
2022-12-16T02:32:38.055Z,9.57
2022-12-16T02:35:38.272Z,9.70
2022-12-16T02:38:32.893Z,9.68
2022-12-16T02:41:14.270Z,10.23
2022-12-16T02:43:53.396Z,9.65
2022-12-16T02:46:23.954Z,9.88
2022-12-16T02:48:50.782Z,9.57
2022-12-16T02:51:18.241Z,9.38
2022-12-16T02:53:46.765Z,9.32
2022-12-16T02:56:36.002Z,10.10
2022-12-16T02:59:32.337Z,9.52
2022-12-16T03:02:17.761Z,9.50
2022-12-16T03:05:15.552Z,9.57
2022-12-16T03:07:45.000Z,10.30
2022-12-16T03:10:17.387Z,9.70
2022-12-16T03:12:45.840Z,9.15
2022-12-16T03:15:19.611Z,9.50
2022-12-16T03:17:47.814Z,9.90
2022-12-16T03:23:08.863Z,9.85
2022-12-16T03:25:39.380Z,9.07
2022-12-16T03:28:23.940Z,9.35
2022-12-16T03:30:57.309Z,9.40
2022-12-16T03:33:29.923Z,9.50
2022-12-16T03:36:09.652Z,9.02
2022-12-16T03:38:37.710Z,9.80
2022-12-16T03:41:05.980Z,9.20
2022-12-16T03:43:33.424Z,9.43
2022-12-16T03:46:05.908Z,8.88
2022-12-16T03:48:33.852Z,9.15
2022-12-16T03:51:01.422Z,9.18
2022-12-16T03:53:28.310Z,8.80
2022-12-16T03:55:55.333Z,8.75
2022-12-16T03:58:22.083Z,9.25
2022-12-16T04:00:48.891Z,9.13
2022-12-16T04:03:15.789Z,8.55
2022-12-16T04:05:42.732Z,8.93
2022-12-16T04:08:09.486Z,8.88
2022-12-16T04:10:54.842Z,8.57
2022-12-16T04:13:40.293Z,8.95
2022-12-16T04:16:32.549Z,8.98
2022-12-16T04:19:18.085Z,8.10
2022-12-16T04:22:03.556Z,8.43
2022-12-16T04:24:30.887Z,8.23
2022-12-16T04:27:16.374Z,8.40
2022-12-16T04:30:02.374Z,7.95
2022-12-16T04:32:49.884Z,8.60
2022-12-16T04:35:35.231Z,7.80
2022-12-16T04:38:20.728Z,8.02
2022-12-16T04:41:06.217Z,8.30
2022-12-16T04:43:51.726Z,7.45
2022-12-16T04:46:36.974Z,7.80
2022-12-16T04:49:22.205Z,8.00
2022-12-16T04:52:07.730Z,7.72
2022-12-16T04:54:53.103Z,7.90
2022-12-16T04:57:38.422Z,7.85
2022-12-16T05:00:24.455Z,7.80
2022-12-16T05:03:09.954Z,7.50
2022-12-16T05:05:55.672Z,7.57
2022-12-16T05:08:40.876Z,7.15
2022-12-16T05:11:26.345Z,7.75
2022-12-16T05:14:11.708Z,7.20
2022-12-16T05:16:57.316Z,7.80
2022-12-16T05:19:42.892Z,7.43
2022-12-16T05:22:28.058Z,7.60
2022-12-16T05:25:13.630Z,7.40
2022-12-16T05:27:58.867Z,7.20
2022-12-16T05:30:44.348Z,7.00
2022-12-16T05:33:29.716Z,7.32
2022-12-16T05:36:14.938Z,7.40
2022-12-16T05:39:00.276Z,6.82
2022-12-16T05:41:45.651Z,7.20
2022-12-16T05:44:31.118Z,7.03
2022-12-16T05:47:16.801Z,7.07
2022-12-16T05:50:01.970Z,7.22
2022-12-16T05:52:47.114Z,7.00
2022-12-16T05:55:34.193Z,6.85
2022-12-16T05:58:20.059Z,6.65
2022-12-16T06:01:05.424Z,7.07
2022-12-16T06:03:51.012Z,6.82
2022-12-16T06:06:36.331Z,6.88
2022-12-16T06:09:22.175Z,6.85
2022-12-16T06:12:29.454Z,7.21
2022-12-16T06:15:14.631Z,6.97
2022-12-16T06:18:07.677Z,6.93
2022-12-16T06:20:53.600Z,6.60
2022-12-16T06:23:39.110Z,6.80
2022-12-16T06:26:24.735Z,6.53
2022-12-16T06:29:10.427Z,6.70
2022-12-16T06:31:56.012Z,6.47
2022-12-16T06:34:41.416Z,7.07
2022-12-16T06:37:26.887Z,6.70
2022-12-16T06:40:12.263Z,6.35
2022-12-16T06:43:00.892Z,6.57
2022-12-16T06:45:47.006Z,6.45
2022-12-16T06:48:32.321Z,6.13
2022-12-16T06:51:17.768Z,7.05
2022-12-16T06:54:03.325Z,6.50
2022-12-16T06:56:48.801Z,5.78
2022-12-16T06:59:34.322Z,5.82
2022-12-16T07:02:19.977Z,6.25
2022-12-16T07:05:05.419Z,6.32
2022-12-16T07:07:50.970Z,6.07
2022-12-16T07:10:36.453Z,5.70
2022-12-16T07:13:21.795Z,6.22
2022-12-16T07:16:07.011Z,6.13
2022-12-16T07:18:52.516Z,6.07
2022-12-16T07:21:37.951Z,7.50
2022-12-16T07:24:23.632Z,8.98
2022-12-16T07:27:09.125Z,8.15
2022-12-16T07:29:54.547Z,7.72
2022-12-16T07:32:39.635Z,7.07
2022-12-16T07:35:25.379Z,6.50
2022-12-16T07:38:10.771Z,5.80
2022-12-16T07:40:56.742Z,6.38
2022-12-16T07:43:42.685Z,6.43
2022-12-16T07:46:28.220Z,6.15
2022-12-16T07:49:13.831Z,6.15
2022-12-16T07:51:59.345Z,5.50
2022-12-16T07:54:47.951Z,6.05
2022-12-16T07:57:33.559Z,6.03
2022-12-16T08:00:22.074Z,5.80
2022-12-16T08:03:14.552Z,5.63
2022-12-16T08:05:59.584Z,12.27
2022-12-16T08:08:44.705Z,10.20
2022-12-16T08:11:29.954Z,7.72
2022-12-16T08:14:15.496Z,6.88
2022-12-16T08:17:00.995Z,6.75
2022-12-16T08:19:46.221Z,5.90
2022-12-16T08:22:31.775Z,5.25
2022-12-16T08:25:17.279Z,5.22
2022-12-16T08:28:03.286Z,5.00
2022-12-16T08:30:48.672Z,5.03
2022-12-16T08:33:34.282Z,4.68
2022-12-16T08:36:20.176Z,4.40
2022-12-16T08:39:05.654Z,4.53
2022-12-16T08:41:51.071Z,4.53
2022-12-16T08:44:36.564Z,4.13
2022-12-16T08:47:22.162Z,3.85
2022-12-16T08:50:07.541Z,4.03
2022-12-16T08:52:53.091Z,3.67
2022-12-16T08:55:38.501Z,4.05
2022-12-16T08:58:23.887Z,4.50
2022-12-16T09:01:09.550Z,4.07
2022-12-16T09:03:55.995Z,3.55
2022-12-16T09:06:41.552Z,3.78
2022-12-16T09:09:28.197Z,3.85
2022-12-16T09:12:13.738Z,3.80
2022-12-16T09:14:59.290Z,3.47
2022-12-16T09:17:44.900Z,3.65
2022-12-16T09:20:30.344Z,2.90
2022-12-16T09:23:15.745Z,3.65
2022-12-16T09:26:01.242Z,3.33
2022-12-16T09:28:46.443Z,3.35
2022-12-16T09:31:33.980Z,3.42
2022-12-16T09:34:36.143Z,3.70
2022-12-16T09:37:21.709Z,2.90
2022-12-16T09:40:07.223Z,3.10
2022-12-16T09:43:09.752Z,2.90
2022-12-16T09:45:58.437Z,3.30
2022-12-16T09:49:19.032Z,3.00
2022-12-16T09:52:05.991Z,3.05
2022-12-16T09:54:54.861Z,2.97
2022-12-16T09:57:43.353Z,3.15
2022-12-16T10:00:42.454Z,3.00
2022-12-16T10:03:41.144Z,2.90
2022-12-16T10:06:39.482Z,2.72
2022-12-16T10:09:36.522Z,3.03
2022-12-16T10:12:43.870Z,2.92
2022-12-16T10:15:53.647Z,2.72
2022-12-16T10:18:42.551Z,2.75
2022-12-16T10:21:34.464Z,2.80
2022-12-16T10:24:29.395Z,2.88
2022-12-16T10:27:31.913Z,2.60
2022-12-16T10:30:17.969Z,2.85
2022-12-16T10:33:06.950Z,2.65
2022-12-16T10:36:08.858Z,2.88
2022-12-16T10:39:00.078Z,2.50
2022-12-16T10:41:50.856Z,2.60
2022-12-16T10:44:43.752Z,2.40
2022-12-16T10:47:30.103Z,2.78
2022-12-16T10:50:17.298Z,2.67
2022-12-16T10:53:22.647Z,2.80
2022-12-16T10:56:13.806Z,2.45
2022-12-16T10:59:11.881Z,2.40
2022-12-16T11:01:57.662Z,2.50
2022-12-16T11:04:56.474Z,2.60
2022-12-16T11:08:29.568Z,2.25
2022-12-16T11:11:14.851Z,2.30
2022-12-16T11:14:00.083Z,2.28
2022-12-16T11:16:47.252Z,2.42
2022-12-16T11:19:42.636Z,2.50
2022-12-16T11:22:36.843Z,2.60
2022-12-16T11:25:39.776Z,2.53
2022-12-16T11:28:34.431Z,2.50
2022-12-16T11:31:24.598Z,2.47
2022-12-16T11:34:12.507Z,2.60
2022-12-16T11:36:59.899Z,2.25
2022-12-16T11:39:47.765Z,2.47
2022-12-16T11:45:35.023Z,2.42
2022-12-16T11:48:32.405Z,2.25
2022-12-16T11:51:19.284Z,2.10
2022-12-16T11:54:06.775Z,2.17
2022-12-16T11:57:00.479Z,2.53
2022-12-16T11:59:51.916Z,2.10
2022-12-16T12:02:46.885Z,2.40
2022-12-16T12:05:32.757Z,2.13
2022-12-16T12:08:36.834Z,2.40
2022-12-16T12:11:43.350Z,2.38
2022-12-16T12:14:50.600Z,2.40
2022-12-16T12:18:21.583Z,2.40
2022-12-16T12:21:22.702Z,1.90
2022-12-16T12:24:19.737Z,2.10
2022-12-16T12:27:34.413Z,1.88
2022-12-16T12:30:24.380Z,2.20
2022-12-16T12:33:09.773Z,2.00
2022-12-16T12:36:15.160Z,2.30
2022-12-16T12:39:11.299Z,2.17
2022-12-16T12:42:15.716Z,2.10
2022-12-16T12:45:39.507Z,2.10
2022-12-16T12:48:34.106Z,2.13
2022-12-16T12:51:31.319Z,2.28
2022-12-16T12:54:33.587Z,2.03
2022-12-16T12:57:34.885Z,2.30
2022-12-16T13:00:24.575Z,2.40
2022-12-16T13:03:22.571Z,2.10
2022-12-16T13:06:09.444Z,2.17
2022-12-16T13:09:12.602Z,1.92
2022-12-16T13:12:26.018Z,2.13
2022-12-16T13:15:28.728Z,2.10
2022-12-16T13:18:19.784Z,2.20
2022-12-16T13:21:17.451Z,1.90
2022-12-16T13:24:04.339Z,1.92
2022-12-16T13:26:52.417Z,2.20
2022-12-16T13:29:47.418Z,1.95
2022-12-16T13:32:41.228Z,2.40
2022-12-16T13:35:29.339Z,2.00
2022-12-16T13:38:21.132Z,1.98
2022-12-16T13:41:12.433Z,2.33
2022-12-16T13:44:03.629Z,2.40
2022-12-16T13:47:07.402Z,2.83
2022-12-16T13:49:55.573Z,3.00
2022-12-16T13:53:03.854Z,2.58
2022-12-16T13:55:50.925Z,2.47
2022-12-16T13:58:54.877Z,2.60
2022-12-16T14:02:06.522Z,2.25
2022-12-16T14:04:58.462Z,2.15
2022-12-16T14:07:45.509Z,2.30
2022-12-16T14:10:44.831Z,2.30
2022-12-16T14:13:47.163Z,2.08
2022-12-16T14:16:50.018Z,2.20
2022-12-16T14:20:13.448Z,2.42
2022-12-16T14:23:56.847Z,2.40
2022-12-16T14:26:43.893Z,2.13
2022-12-16T14:29:49.185Z,2.15
2022-12-16T14:32:53.988Z,2.13
2022-12-16T14:35:43.042Z,2.40
2022-12-16T14:38:48.966Z,2.10
2022-12-16T14:41:39.082Z,1.90
2022-12-16T14:44:34.874Z,2.42
2022-12-16T14:47:20.349Z,2.50
2022-12-16T14:50:10.327Z,2.78
2022-12-16T14:52:55.772Z,3.20
2022-12-16T14:55:52.756Z,3.88
2022-12-16T14:58:40.898Z,3.80
2022-12-16T15:01:40.083Z,4.50
2022-12-16T15:04:44.342Z,4.38
2022-12-16T15:07:32.648Z,4.40
2022-12-16T15:10:19.238Z,4.47
2022-12-16T15:13:05.765Z,4.55
2022-12-16T15:15:55.746Z,4.82
2022-12-16T15:18:57.108Z,4.45
2022-12-16T15:21:42.664Z,4.95
2022-12-16T15:24:29.653Z,4.80
2022-12-16T15:27:41.221Z,4.90
2022-12-16T15:31:04.749Z,4.30
2022-12-16T15:33:51.205Z,4.30
2022-12-16T15:36:51.420Z,4.38
2022-12-16T15:39:43.594Z,4.00
2022-12-16T15:42:46.849Z,4.38
2022-12-16T15:45:47.435Z,4.53
2022-12-16T15:48:49.697Z,4.30
2022-12-16T15:51:45.446Z,4.05
2022-12-16T15:54:42.876Z,4.15
2022-12-16T15:57:51.756Z,3.97
2022-12-16T16:00:41.794Z,5.00
2022-12-16T16:03:44.297Z,4.50
2022-12-16T16:06:43.077Z,4.97
2022-12-16T16:09:39.634Z,4.50
2022-12-16T16:12:27.258Z,4.10
2022-12-16T16:15:12.720Z,4.35
2022-12-16T16:17:58.094Z,4.00
2022-12-16T16:20:43.613Z,4.15
2022-12-16T16:23:29.753Z,4.25
2022-12-16T16:26:15.216Z,3.97
2022-12-16T16:29:00.906Z,3.60
2022-12-16T16:31:46.196Z,4.50
2022-12-16T16:34:31.406Z,6.93
2022-12-16T16:37:17.622Z,7.75
2022-12-16T16:40:03.307Z,5.70
2022-12-16T16:42:48.632Z,5.20
2022-12-16T16:45:33.910Z,4.63
2022-12-16T16:48:29.411Z,4.43
2022-12-16T16:51:15.849Z,4.32
2022-12-16T16:54:01.471Z,4.00
2022-12-16T16:56:49.349Z,4.70
2022-12-16T17:02:20.321Z,4.03
2022-12-16T17:05:05.691Z,3.70
2022-12-16T17:07:53.911Z,3.78
2022-12-16T17:10:39.513Z,3.85
2022-12-16T17:13:24.732Z,4.00
2022-12-16T17:16:10.128Z,3.30
2022-12-16T17:18:55.240Z,3.17
2022-12-16T17:21:40.795Z,3.70
2022-12-16T17:24:26.408Z,3.70
2022-12-16T17:27:11.913Z,3.50
2022-12-16T17:29:57.159Z,3.42
2022-12-16T17:32:42.475Z,3.30
2022-12-16T17:35:50.116Z,3.60
2022-12-16T17:41:20.942Z,3.75
2022-12-16T17:44:07.650Z,3.25
2022-12-16T17:46:55.634Z,3.45
2022-12-16T17:49:41.018Z,3.38
2022-12-16T17:52:26.478Z,3.53
2022-12-16T17:55:11.849Z,3.17
2022-12-16T17:57:57.083Z,3.35
2022-12-16T18:00:42.605Z,3.65
2022-12-16T18:03:28.199Z,3.80
2022-12-16T18:06:16.641Z,5.93
2022-12-16T18:09:02.275Z,5.50
2022-12-16T18:11:47.815Z,4.82
2022-12-16T18:14:33.213Z,4.47
2022-12-16T18:17:18.760Z,3.80
2022-12-16T18:20:04.138Z,4.50
2022-12-16T18:22:49.631Z,4.10
2022-12-16T18:25:34.975Z,4.00
2022-12-16T18:28:20.230Z,4.05
2022-12-16T18:31:05.825Z,4.13
2022-12-16T18:33:51.513Z,3.67
2022-12-16T18:36:37.046Z,4.00
2022-12-16T18:39:22.583Z,3.83
2022-12-16T18:42:08.226Z,3.97
2022-12-16T18:44:59.222Z,3.90
2022-12-16T18:47:46.407Z,3.97
2022-12-16T18:50:37.468Z,4.35
2022-12-16T18:53:24.076Z,4.18
2022-12-16T18:56:38.949Z,3.75
2022-12-16T18:59:24.091Z,4.53
2022-12-16T19:02:09.751Z,3.88
2022-12-16T19:04:55.421Z,4.07
2022-12-16T19:07:40.632Z,4.25
2022-12-16T19:10:26.612Z,4.20
2022-12-16T19:13:19.087Z,3.70
2022-12-16T19:16:15.022Z,3.88
2022-12-16T19:19:01.250Z,4.00
2022-12-16T19:21:51.828Z,3.88
2022-12-16T19:24:41.376Z,4.40
2022-12-16T19:27:26.980Z,3.78
2022-12-16T19:30:12.715Z,4.00
2022-12-16T19:32:57.931Z,3.83
2022-12-16T19:35:43.422Z,3.78
2022-12-16T19:38:33.085Z,4.13
2022-12-16T19:41:18.823Z,4.00
2022-12-16T19:44:21.195Z,3.78
2022-12-16T19:47:07.021Z,3.95
2022-12-16T19:49:52.413Z,3.83
2022-12-16T19:52:40.412Z,3.75
2022-12-16T19:55:26.846Z,4.28
2022-12-16T19:58:12.501Z,4.10
2022-12-16T20:01:02.573Z,3.70
2022-12-16T20:03:48.788Z,3.70
2022-12-16T20:06:34.877Z,3.50
2022-12-16T20:09:19.962Z,3.90
2022-12-16T20:12:05.346Z,4.07
2022-12-16T20:14:51.630Z,3.67
2022-12-16T20:17:37.155Z,3.95
2022-12-16T20:20:22.654Z,4.18
2022-12-16T20:23:08.095Z,3.97
2022-12-16T20:25:56.324Z,4.10
2022-12-16T20:28:42.411Z,3.90
2022-12-16T20:31:27.642Z,3.85
2022-12-16T20:34:16.397Z,4.03
2022-12-16T20:37:01.568Z,3.97
2022-12-16T20:39:56.762Z,4.18
2022-12-16T20:42:43.614Z,3.70
2022-12-16T20:45:29.686Z,4.43
2022-12-16T20:48:17.936Z,4.40
2022-12-16T20:51:10.990Z,4.28
2022-12-16T20:53:56.586Z,4.25
2022-12-16T20:56:41.897Z,4.10
2022-12-16T20:59:27.377Z,4.22
2022-12-16T21:02:23.066Z,3.97
2022-12-16T21:05:08.637Z,4.28
2022-12-16T21:07:54.617Z,4.47
2022-12-16T21:10:42.222Z,4.22
2022-12-16T21:13:29.276Z,4.50
2022-12-16T21:16:16.894Z,4.90
2022-12-16T21:19:02.428Z,4.75
2022-12-16T21:21:47.820Z,4.45
2022-12-16T21:24:33.080Z,4.90
2022-12-16T21:27:18.316Z,4.63
2022-12-16T21:30:03.799Z,5.05
2022-12-16T21:32:49.391Z,4.90
2022-12-16T21:35:35.010Z,5.07
2022-12-16T21:38:20.549Z,5.20
2022-12-16T21:41:13.337Z,5.10
2022-12-16T21:43:59.134Z,5.95
2022-12-16T21:46:45.011Z,5.32
2022-12-16T21:49:30.386Z,5.45
2022-12-16T21:52:15.755Z,5.30
2022-12-16T21:55:01.195Z,5.22
2022-12-16T21:57:46.571Z,5.38
2022-12-16T22:00:32.598Z,5.60
2022-12-16T22:03:18.199Z,5.30
2022-12-16T22:06:03.510Z,4.95
2022-12-16T22:08:49.143Z,5.43
2022-12-16T22:11:34.844Z,5.22
2022-12-16T22:14:20.513Z,5.65
2022-12-16T22:17:05.865Z,5.13
2022-12-16T22:19:57.095Z,5.43
2022-12-16T22:22:42.438Z,5.93
2022-12-16T22:25:29.139Z,5.03
2022-12-16T22:28:14.435Z,5.50
2022-12-16T22:30:59.592Z,5.35
2022-12-16T22:33:44.911Z,5.10
2022-12-16T22:36:33.026Z,5.30
2022-12-16T22:39:18.646Z,6.10
2022-12-16T22:42:04.047Z,5.72
2022-12-16T22:44:49.398Z,5.78
2022-12-16T22:47:34.802Z,5.63
2022-12-16T22:50:20.344Z,5.78
2022-12-16T22:53:05.850Z,5.90
2022-12-16T22:55:51.158Z,6.07
2022-12-16T22:58:37.554Z,6.07
2022-12-16T23:01:28.889Z,5.85
2022-12-16T23:04:14.303Z,5.80
2022-12-16T23:06:59.585Z,6.05
2022-12-16T23:09:47.152Z,6.30
2022-12-16T23:12:32.621Z,5.88
2022-12-16T23:15:17.980Z,6.07
2022-12-16T23:18:03.303Z,5.88
2022-12-16T23:20:48.660Z,6.57
2022-12-16T23:23:34.104Z,6.50
2022-12-16T23:26:20.778Z,6.32
2022-12-16T23:29:12.360Z,6.63
2022-12-16T23:31:57.818Z,6.25
2022-12-16T23:34:46.097Z,6.60
2022-12-16T23:37:32.885Z,6.78
2022-12-16T23:40:18.574Z,6.32
2022-12-16T23:43:05.898Z,6.65
2022-12-16T23:45:51.337Z,6.20
2022-12-16T23:48:37.000Z,6.40
2022-12-16T23:51:22.611Z,7.30
2022-12-16T23:54:07.951Z,6.63
2022-12-16T23:56:53.381Z,6.68
2022-12-16T23:59:41.811Z,6.80
